Time;durP1;ratioP1;P1;durP2;ratioP2;P2;SDS_P1;SDS_P2;PMS_P1;PMS_P2;Temp;Humidity;BMP_temperature;BMP_pressure;BME280_temperature;BME280_humidity;BME280_pressure;Samples;Min_cycle;Max_cycle;Signal;HPM_P1;HPM_P2
2022/01/12 00:01:42;;;;;;;8.65;6.45;;;23.30;33.20;;;;;;5018388;28;20450;-44
2022/01/12 00:04:08;;;;;;;7.97;6.85;;;23.20;33.10;;;;;;5021201;28;20033;-44
2022/01/12 00:06:34;;;;;;;8.75;7.35;;;23.20;33.00;;;;;;5025405;28;20111;-44
2022/01/12 00:09:05;;;;;;;8.00;6.47;;;23.20;33.00;;;;;;5024363;28;20549;-44
2022/01/12 00:11:32;;;;;;;10.00;7.38;;;23.20;32.90;;;;;;5019565;28;20103;-44
2022/01/12 00:13:57;;;;;;;8.13;6.93;;;23.10;33.00;;;;;;5024480;28;20041;-44
2022/01/12 00:16:23;;;;;;;8.02;6.47;;;23.10;33.00;;;;;;5025244;28;20031;-44
2022/01/12 00:18:49;;;;;;;9.10;6.60;;;23.10;33.00;;;;;;5024951;28;20037;-44
2022/01/12 00:21:15;;;;;;;8.80;7.20;;;23.10;33.00;;;;;;5021584;28;20061;-43
2022/01/12 00:23:41;;;;;;;7.63;6.28;;;23.10;33.00;;;;;;5005194;28;20107;-44
2022/01/12 00:26:12;;;;;;;6.80;6.00;;;23.10;32.90;;;;;;5005544;28;20644;-44
2022/01/12 00:34:10;;;;;;;8.75;6.55;;;23.00;32.90;;;;;;5005341;28;20103;-43
2022/01/12 00:36:36;;;;;;;8.25;6.70;;;23.00;32.80;;;;;;5011062;28;20486;-43
2022/01/12 00:39:04;;;;;;;8.40;7.15;;;23.00;32.80;;;;;;5024745;28;20025;-44
2022/01/12 00:41:30;;;;;;;8.73;6.75;;;23.00;32.90;;;;;;5016981;28;20405;-44
2022/01/12 00:43:58;;;;;;;8.00;6.07;;;23.00;33.40;;;;;;5004010;28;20117;-44
2022/01/12 00:46:29;;;;;;;7.63;5.95;;;22.90;32.90;;;;;;5005172;28;20022;-44
2022/01/12 00:48:57;;;;;;;8.10;6.90;;;23.00;32.90;;;;;;5004704;28;20510;-45
2022/01/12 00:51:26;;;;;;;7.97;6.65;;;22.90;32.90;;;;;;5008531;28;20087;-44
2022/01/12 00:53:56;;;;;;;6.95;5.93;;;22.90;32.90;;;;;;5024582;28;20445;-44
2022/01/12 00:56:22;;;;;;;7.00;5.78;;;22.90;32.90;;;;;;5024751;28;20749;-44
2022/01/12 00:58:49;;;;;;;7.55;6.43;;;22.90;33.00;;;;;;5024429;28;20033;-44
2022/01/12 01:01:15;;;;;;;6.78;5.57;;;22.90;33.00;;;;;;5024289;28;20091;-43
2022/01/12 01:03:41;;;;;;;7.72;6.40;;;22.90;33.00;;;;;;5023897;28;20060;-44
2022/01/12 01:06:09;;;;;;;7.65;6.18;;;22.80;33.00;;;;;;5023079;28;20029;-44
2022/01/12 01:08:35;;;;;;;6.97;5.78;;;22.80;33.00;;;;;;5004483;28;20486;-44
2022/01/12 01:11:01;;;;;;;7.57;6.25;;;22.80;33.00;;;;;;5005014;28;20037;-43
2022/01/12 01:13:35;;;;;;;7.68;5.88;;;22.80;33.00;;;;;;5004151;28;20026;-44
2022/01/12 01:16:09;;;;;;;8.45;6.43;;;22.80;33.00;;;;;;5004769;28;20444;-44
2022/01/12 01:26:50;;;;;;;7.40;5.82;;;22.70;33.00;;;;;;5023861;28;20029;-44
2022/01/12 01:29:16;;;;;;;7.90;6.70;;;22.70;32.90;;;;;;5024653;28;20042;-44
2022/01/12 01:31:44;;;;;;;7.50;6.20;;;22.70;33.00;;;;;;5024402;28;20033;-44
2022/01/12 01:34:12;;;;;;;7.72;6.40;;;22.70;33.00;;;;;;5024214;28;20545;-44
2022/01/12 01:36:41;;;;;;;8.52;6.25;;;22.70;33.10;;;;;;5019720;28;20553;-43
2022/01/12 01:39:09;;;;;;;8.48;7.00;;;22.60;33.00;;;;;;5004061;28;20029;-44
2022/01/12 01:41:36;;;;;;;6.82;5.55;;;22.70;33.00;;;;;;5004332;28;20037;-44
2022/01/12 01:54:57;;;;;;;7.50;6.07;;;22.60;32.90;;;;;;5006942;28;20101;-44
2022/01/12 01:57:24;;;;;;;8.80;6.93;;;22.60;33.00;;;;;;5019730;28;20060;-44
2022/01/12 01:59:50;;;;;;;8.00;6.78;;;22.60;33.00;;;;;;5027352;28;20087;-43
2022/01/12 02:02:16;;;;;;;8.07;6.45;;;22.50;33.10;;;;;;5027008;28;20034;-44
2022/01/12 02:04:42;;;;;;;7.15;6.15;;;22.50;33.10;;;;;;5027028;28;20025;-44
2022/01/12 02:07:08;;;;;;;6.63;5.63;;;22.50;33.10;;;;;;5026843;28;20028;-44
2022/01/12 02:09:34;;;;;;;6.75;5.30;;;22.50;33.10;;;;;;5026173;28;20639;-44
2022/01/12 02:12:01;;;;;;;7.00;5.80;;;22.50;33.10;;;;;;5016266;28;20076;-47
2022/01/12 02:14:28;;;;;;;8.02;5.82;;;22.50;33.10;;;;;;5007293;28;20029;-45
2022/01/12 02:17:01;;;;;;;7.40;5.95;;;22.50;33.10;;;;;;5007248;28;20113;-43
2022/01/12 02:36:27;;;;;;;7.50;5.90;;;22.40;33.00;;;;;;5007553;28;20196;-44
2022/01/12 02:41:39;;;;;;;7.45;6.10;;;22.40;33.00;;;;;;5006981;28;20022;-44
2022/01/12 02:54:50;;;;;;;6.50;5.60;;;22.40;33.00;;;;;;5007370;28;20111;-44
2022/01/12 02:57:16;;;;;;;6.95;5.45;;;22.30;33.00;;;;;;5006784;28;20060;-44
2022/01/12 03:00:07;;;;;;;7.05;5.75;;;22.30;33.00;;;;;;5006769;28;20549;-44
2022/01/12 03:07:40;;;;;;;6.45;5.13;;;22.30;32.90;;;;;;5017739;28;20067;-44
2022/01/12 03:10:09;;;;;;;6.60;5.32;;;22.30;32.90;;;;;;5026602;28;20034;-44
2022/01/12 03:12:43;;;;;;;7.05;5.70;;;22.30;33.00;;;;;;5009921;28;20422;-44
2022/01/12 03:15:09;;;;;;;6.97;5.35;;;22.30;32.90;;;;;;5006461;28;20117;-44
2022/01/12 03:17:35;;;;;;;7.05;5.63;;;22.30;32.90;;;;;;5006424;28;20037;-44
2022/01/12 03:20:04;;;;;;;7.22;5.90;;;22.30;32.90;;;;;;5006659;28;20091;-44
2022/01/12 03:22:29;;;;;;;7.70;5.93;;;22.30;32.90;;;;;;5005839;28;20068;-44
2022/01/12 03:24:55;;;;;;;7.93;6.10;;;22.30;32.90;;;;;;5006161;28;20486;-44
2022/01/12 03:27:22;;;;;;;7.32;5.72;;;22.20;32.80;;;;;;5006486;28;20028;-44
2022/01/12 03:29:51;;;;;;;8.05;6.22;;;22.20;32.80;;;;;;5006197;28;20026;-43
2022/01/12 03:32:21;;;;;;;7.05;5.97;;;22.20;32.80;;;;;;5006064;28;20065;-44
2022/01/12 03:34:54;;;;;;;7.13;5.72;;;22.20;32.80;;;;;;5006208;28;20067;-44
2022/01/12 03:37:42;;;;;;;6.25;5.07;;;22.20;32.80;;;;;;5005721;28;20461;-44
2022/01/12 03:40:09;;;;;;;6.88;5.78;;;22.20;32.80;;;;;;5006218;28;20021;-44
2022/01/12 03:42:35;;;;;;;7.15;5.82;;;22.20;32.80;;;;;;5005906;28;20449;-44
2022/01/12 03:45:02;;;;;;;6.93;6.07;;;22.20;32.80;;;;;;5005832;28;20018;-43
2022/01/12 03:47:27;;;;;;;6.68;5.43;;;22.20;32.80;;;;;;5006038;28;20053;-44
2022/01/12 03:49:53;;;;;;;7.13;5.75;;;22.20;32.80;;;;;;5005233;28;20548;-44
2022/01/12 03:52:19;;;;;;;7.45;6.10;;;22.20;32.80;;;;;;5005292;28;20026;-43
2022/01/12 03:54:45;;;;;;;7.25;5.70;;;22.20;32.80;;;;;;5006121;28;20029;-43
2022/01/12 03:57:11;;;;;;;7.25;5.82;;;22.20;32.80;;;;;;5004501;28;20097;-44
2022/01/12 03:59:36;;;;;;;6.47;5.00;;;22.20;32.80;;;;;;5006154;28;20031;-43
2022/01/12 04:02:02;;;;;;;8.05;6.55;;;22.20;32.80;;;;;;5005369;28;20033;-44
2022/01/12 04:04:36;;;;;;;7.13;5.60;;;22.10;32.70;;;;;;5005466;28;20522;-44
2022/01/12 04:09:47;;;;;;;6.63;5.10;;;22.10;32.80;;;;;;5024977;28;20767;-44
2022/01/12 04:12:14;;;;;;;7.50;6.05;;;22.10;32.70;;;;;;5011969;28;20105;-44
2022/01/12 04:14:40;;;;;;;7.90;6.30;;;22.10;32.70;;;;;;5004841;28;20117;-44
2022/01/12 04:17:05;;;;;;;6.85;5.63;;;22.10;32.70;;;;;;5004918;28;20101;-44
2022/01/12 04:19:31;;;;;;;7.53;5.90;;;22.10;33.40;;;;;;5005668;28;20022;-44
2022/01/12 04:22:07;;;;;;;7.57;6.25;;;22.10;33.40;;;;;;5004983;28;20076;-43
2022/01/12 04:24:33;;;;;;;7.53;5.93;;;22.10;32.70;;;;;;5004928;28;20037;-44
2022/01/12 04:26:59;;;;;;;7.13;5.68;;;22.10;32.80;;;;;;5004416;28;20065;-44
2022/01/12 04:29:25;;;;;;;6.80;5.45;;;22.10;32.70;;;;;;5005361;28;20053;-44
2022/01/12 04:31:51;;;;;;;7.75;6.22;;;22.10;32.70;;;;;;5004906;28;20037;-44
2022/01/12 04:34:16;;;;;;;7.90;5.80;;;22.10;32.70;;;;;;5005075;28;20018;-44
2022/01/12 04:36:42;;;;;;;7.93;6.32;;;22.10;32.70;;;;;;5006118;28;20022;-44
2022/01/12 04:39:08;;;;;;;7.82;6.10;;;22.00;32.60;;;;;;5024784;28;20036;-44
2022/01/12 04:41:36;;;;;;;7.80;6.10;;;22.00;32.70;;;;;;5016729;28;20068;-44
2022/01/12 04:44:02;;;;;;;7.03;5.95;;;22.00;32.70;;;;;;4986830;28;20026;-44
2022/01/12 04:46:49;;;;;;;6.75;5.88;;;22.00;32.60;;;;;;5005474;28;20574;-44
2022/01/12 04:51:47;;;;;;;7.43;6.13;;;22.00;32.70;;;;;;5006198;28;20576;-44
2022/01/12 04:54:13;;;;;;;6.88;6.18;;;22.00;32.80;;;;;;5024328;28;20268;-44
2022/01/12 04:56:38;;;;;;;6.82;5.35;;;22.00;32.70;;;;;;5024626;28;20515;-44
2022/01/12 04:59:04;;;;;;;7.25;5.80;;;22.00;32.70;;;;;;5024690;28;20030;-44
2022/01/12 05:01:35;;;;;;;7.43;5.72;;;22.00;32.70;;;;;;5021840;28;20048;-44
2022/01/12 05:09:28;;;;;;;7.18;5.85;;;22.00;32.70;;;;;;5024640;28;20701;-44
2022/01/12 05:14:44;;;;;;;6.88;5.32;;;22.00;32.70;;;;;;5019775;28;19912;-44
2022/01/12 05:17:10;;;;;;;7.75;6.13;;;22.00;32.80;;;;;;5022466;28;20030;-44
2022/01/12 05:19:36;;;;;;;7.32;5.93;;;21.90;33.00;;;;;;5024082;28;20032;-44
2022/01/12 05:22:02;;;;;;;6.70;5.15;;;21.90;33.20;;;;;;5023425;28;20029;-44
2022/01/12 05:24:28;;;;;;;8.55;6.65;;;22.00;33.20;;;;;;5023548;28;20029;-44
2022/01/12 05:26:53;;;;;;;6.88;5.72;;;22.00;33.50;;;;;;5024046;28;20028;-44
2022/01/12 05:29:19;;;;;;;7.82;6.40;;;22.00;33.60;;;;;;5025145;28;20026;-44
2022/01/12 05:31:45;;;;;;;8.10;6.50;;;22.00;33.60;;;;;;5027470;28;20021;-44
2022/01/12 05:34:10;;;;;;;9.77;6.20;;;22.00;33.50;;;;;;5026431;28;20064;-44
2022/01/12 05:36:36;;;;;;;7.75;5.97;;;22.00;33.50;;;;;;5026305;28;20029;-44
2022/01/12 05:39:02;;;;;;;9.57;7.15;;;22.10;33.70;;;;;;5026385;28;20095;-44
2022/01/12 05:41:28;;;;;;;8.98;7.38;;;22.20;33.90;;;;;;5020358;28;20497;-44
2022/01/12 05:43:54;;;;;;;9.48;6.40;;;22.20;33.90;;;;;;5014523;28;20037;-44
2022/01/12 05:46:24;;;;;;;9.40;6.20;;;22.30;33.80;;;;;;5027448;28;20032;-43
2022/01/12 05:51:36;;;;;;;8.13;6.15;;;22.40;33.80;;;;;;5014482;28;20071;-44
2022/01/12 05:54:02;;;;;;;7.82;6.03;;;22.40;33.70;;;;;;5025749;28;20437;-44
2022/01/12 05:56:31;;;;;;;7.63;6.30;;;22.50;33.70;;;;;;5028326;28;20033;-44
2022/01/12 05:58:56;;;;;;;7.18;5.72;;;22.60;33.60;;;;;;5027663;28;20033;-43
2022/01/12 06:01:22;;;;;;;8.23;5.97;;;22.60;33.50;;;;;;5027272;28;20531;-44
2022/01/12 06:03:48;;;;;;;7.90;6.20;;;22.60;33.40;;;;;;5027002;28;20033;-45
2022/01/12 06:06:14;;;;;;;7.65;6.18;;;22.70;33.40;;;;;;5027558;28;20563;-44
2022/01/12 06:08:39;;;;;;;7.63;6.35;;;22.80;33.20;;;;;;5027174;28;20053;-44
2022/01/12 06:11:06;;;;;;;8.10;5.65;;;22.80;33.10;;;;;;5026100;28;20108;-44
2022/01/12 06:13:31;;;;;;;7.75;5.90;;;22.80;33.10;;;;;;5026608;28;20037;-44
2022/01/12 06:15:57;;;;;;;7.15;6.40;;;22.90;33.20;;;;;;5025931;28;20041;-44
2022/01/12 06:18:23;;;;;;;6.85;5.68;;;22.90;33.20;;;;;;5026600;28;20021;-45
2022/01/12 06:20:50;;;;;;;7.20;5.65;;;22.90;33.10;;;;;;5024199;28;20033;-45
2022/01/12 06:23:17;;;;;;;8.40;6.28;;;23.00;33.00;;;;;;5024019;28;20021;-44
2022/01/12 06:25:43;;;;;;;8.50;6.97;;;23.00;33.00;;;;;;5026641;28;20087;-44
2022/01/12 06:29:14;;;;;;;9.30;6.43;;;23.00;32.90;;;;;;5026107;28;20356;-45
2022/01/12 06:31:10;;;;;;;8.48;6.47;;;23.00;32.80;;;;;;5024577;28;20415;-45
2022/01/12 06:33:49;;;;;;;7.78;6.00;;;23.10;33.30;;;;;;5024915;28;20861;-45
2022/01/12 06:36:17;;;;;;;8.65;6.63;;;23.20;33.40;;;;;;5027439;28;20120;-45
2022/01/12 06:38:43;;;;;;;7.85;6.15;;;23.30;33.40;;;;;;5017631;28;20057;-46
2022/01/12 06:41:11;;;;;;;8.27;6.60;;;23.30;33.20;;;;;;5011167;28;20049;-46
2022/01/12 06:43:37;;;;;;;7.18;5.95;;;23.30;33.30;;;;;;5006791;28;20042;-45
2022/01/12 06:46:03;;;;;;;8.32;6.00;;;23.40;33.00;;;;;;5010875;28;20072;-44
2022/01/12 06:48:30;;;;;;;7.40;6.30;;;23.50;32.90;;;;;;5026229;28;20716;-44
2022/01/12 06:50:56;;;;;;;7.65;6.28;;;23.50;33.10;;;;;;5007308;28;20022;-43
2022/01/12 06:53:22;;;;;;;6.90;5.93;;;23.60;33.10;;;;;;5018478;28;20245;-43
2022/01/12 06:55:47;;;;;;;8.68;6.72;;;23.70;33.00;;;;;;5024462;28;20207;-44
2022/01/12 06:58:13;;;;;;;6.25;5.45;;;23.70;32.80;;;;;;5006432;28;20045;-44
2022/01/12 07:00:39;;;;;;;7.57;5.35;;;23.80;32.90;;;;;;5011011;28;20537;-44
2022/01/12 07:03:05;;;;;;;6.93;5.68;;;23.90;32.50;;;;;;5025821;28;20454;-43
2022/01/12 07:05:31;;;;;;;9.35;6.30;;;23.90;32.60;;;;;;5026509;28;20063;-44
2022/01/12 07:07:56;;;;;;;6.90;5.65;;;24.00;32.40;;;;;;5016980;28;20037;-47
2022/01/12 07:10:22;;;;;;;7.18;5.93;;;24.00;32.40;;;;;;5006320;28;20030;-43
2022/01/12 07:12:48;;;;;;;7.65;6.10;;;24.10;32.30;;;;;;5006026;28;20034;-44
2022/01/12 07:15:13;;;;;;;8.63;5.85;;;24.10;32.40;;;;;;5006580;28;20026;-44
2022/01/12 07:17:39;;;;;;;6.57;5.32;;;24.30;32.30;;;;;;5005831;28;20038;-43
2022/01/12 07:20:05;;;;;;;5.53;4.40;;;24.30;32.30;;;;;;5009294;28;20033;-44
2022/01/12 07:22:31;;;;;;;6.05;5.00;;;24.30;32.30;;;;;;5025914;28;20033;-44
2022/01/12 07:24:57;;;;;;;7.20;5.32;;;24.40;32.20;;;;;;5026272;28;20550;-44
2022/01/12 07:27:23;;;;;;;6.60;5.53;;;24.40;32.10;;;;;;5008043;28;20140;-44
2022/01/12 07:29:49;;;;;;;6.38;4.95;;;24.50;32.10;;;;;;5006052;28;20022;-42
2022/01/12 07:32:14;;;;;;;6.97;5.63;;;24.50;31.90;;;;;;5005195;28;20063;-43
2022/01/12 07:34:40;;;;;;;7.38;5.38;;;24.60;31.90;;;;;;5003450;28;20142;-44
2022/01/12 07:37:06;;;;;;;7.28;6.05;;;24.70;31.70;;;;;;5006873;28;20040;-44
2022/01/12 07:39:32;;;;;;;6.75;5.53;;;24.70;31.30;;;;;;5024893;28;20064;-44
2022/01/12 07:41:58;;;;;;;6.90;5.10;;;24.80;31.10;;;;;;5013587;28;20026;-43
2022/01/12 07:44:24;;;;;;;6.32;5.20;;;24.80;31.40;;;;;;5022712;28;20028;-43
2022/01/12 07:46:49;;;;;;;6.70;5.60;;;24.80;31.40;;;;;;5024871;28;20030;-44
2022/01/12 07:49:15;;;;;;;6.65;5.22;;;24.90;31.40;;;;;;5024393;28;20029;-44
2022/01/12 07:51:41;;;;;;;6.25;4.70;;;24.90;31.50;;;;;;5024344;28;20025;-43
2022/01/12 07:54:07;;;;;;;6.78;4.95;;;25.00;31.50;;;;;;5025273;28;20048;-44
2022/01/12 07:56:33;;;;;;;7.38;5.38;;;25.00;31.30;;;;;;5017014;28;20554;-44
2022/01/12 07:58:59;;;;;;;6.82;5.45;;;25.00;31.30;;;;;;5005883;28;20120;-44
2022/01/12 08:01:24;;;;;;;6.78;5.22;;;25.10;31.20;;;;;;5005920;28;20045;-44
2022/01/12 08:03:50;;;;;;;7.20;5.32;;;25.20;31.20;;;;;;5004941;28;20041;-43
2022/01/12 08:06:16;;;;;;;6.30;5.32;;;25.20;31.10;;;;;;5005216;28;20574;-44
2022/01/12 08:08:42;;;;;;;8.32;6.18;;;25.20;30.80;;;;;;5004828;28;20038;-44
2022/01/12 08:11:08;;;;;;;6.72;5.80;;;25.30;30.60;;;;;;5021264;28;20021;-44
2022/01/12 08:13:34;;;;;;;6.70;5.65;;;25.30;30.50;;;;;;5023812;28;20517;-44
2022/01/12 08:16:00;;;;;;;6.78;5.05;;;25.40;30.50;;;;;;5025254;28;20026;-45
2022/01/12 08:18:26;;;;;;;6.15;5.18;;;25.40;30.60;;;;;;5024727;28;20037;-45
2022/01/12 08:20:51;;;;;;;7.65;5.82;;;25.40;30.50;;;;;;5022918;28;20669;-45
2022/01/12 08:23:18;;;;;;;6.78;5.30;;;25.50;30.50;;;;;;5024317;28;20069;-45
2022/01/12 08:25:45;;;;;;;6.35;5.43;;;25.50;30.20;;;;;;5019574;28;20104;-44
2022/01/12 08:28:11;;;;;;;6.38;5.15;;;25.50;30.20;;;;;;5004780;28;20034;-46
2022/01/12 08:30:37;;;;;;;8.30;5.43;;;25.50;30.30;;;;;;5004997;28;20034;-44
2022/01/12 08:33:04;;;;;;;6.47;5.20;;;25.50;30.10;;;;;;5004222;28;20037;-44
2022/01/12 08:35:30;;;;;;;6.85;5.75;;;25.60;30.10;;;;;;5004956;28;20061;-44
2022/01/12 08:37:57;;;;;;;6.97;5.70;;;25.60;30.00;;;;;;5005046;28;20057;-45
2022/01/12 08:40:23;;;;;;;6.30;5.20;;;25.60;30.00;;;;;;5004283;28;20038;-44
2022/01/12 08:42:49;;;;;;;7.22;5.00;;;25.60;29.90;;;;;;5004234;28;20659;-45
2022/01/12 08:45:17;;;;;;;6.65;5.32;;;25.70;30.00;;;;;;5004933;28;20032;-45
2022/01/12 08:47:43;;;;;;;5.85;4.55;;;25.70;29.70;;;;;;5004350;28;20033;-44
2022/01/12 08:50:10;;;;;;;6.65;5.32;;;25.70;29.90;;;;;;5004423;28;20040;-44
2022/01/12 08:52:36;;;;;;;7.63;5.80;;;25.70;29.80;;;;;;5007202;28;20048;-44
2022/01/12 08:55:03;;;;;;;7.15;5.30;;;25.70;29.80;;;;;;5023611;28;20018;-44
2022/01/12 08:57:29;;;;;;;6.53;5.70;;;25.70;29.70;;;;;;5009699;28;20332;-45
2022/01/12 09:00:00;;;;;;;6.13;5.18;;;25.70;29.70;;;;;;5004007;28;20037;-44
2022/01/12 09:02:26;;;;;;;7.57;6.05;;;25.70;29.60;;;;;;5007493;28;20727;-44
2022/01/12 09:04:52;;;;;;;6.82;5.53;;;25.80;29.70;;;;;;5015372;28;20116;-44
2022/01/12 09:07:18;;;;;;;6.55;5.57;;;25.80;29.60;;;;;;5022504;28;20105;-44
2022/01/12 09:09:44;;;;;;;6.85;5.80;;;25.80;30.30;;;;;;5015583;28;20355;-45
2022/01/12 09:12:10;;;;;;;7.10;5.35;;;25.70;29.30;;;;;;5019354;28;20055;-44
2022/01/12 09:14:36;;;;;;;7.35;5.72;;;25.80;29.50;;;;;;5023942;28;20489;-44
2022/01/12 09:17:02;;;;;;;6.45;5.50;;;25.80;29.20;;;;;;5022786;28;20068;-45
2022/01/12 09:19:29;;;;;;;6.97;6.05;;;25.80;29.30;;;;;;5022742;28;20116;-44
2022/01/12 09:21:56;;;;;;;6.72;5.15;;;25.80;29.70;;;;;;5007109;28;20026;-44
2022/01/12 09:24:22;;;;;;;6.65;5.57;;;25.80;29.70;;;;;;5010447;28;20030;-44
2022/01/12 09:26:49;;;;;;;6.82;5.30;;;25.80;30.50;;;;;;5003118;28;20033;-44
2022/01/12 09:29:15;;;;;;;6.10;5.40;;;25.80;29.70;;;;;;5008729;28;20064;-44
2022/01/12 09:31:41;;;;;;;6.65;5.45;;;25.80;29.80;;;;;;5014301;28;20490;-44
2022/01/12 09:34:07;;;;;;;6.95;4.97;;;25.80;29.70;;;;;;5014840;28;20676;-44
2022/01/12 09:36:33;;;;;;;6.63;4.88;;;25.80;29.70;;;;;;5011667;28;20034;-44
2022/01/12 09:39:00;;;;;;;6.18;4.82;;;25.80;29.80;;;;;;5016438;28;20033;-44
2022/01/12 09:41:27;;;;;;;6.03;4.60;;;25.80;29.70;;;;;;5020187;28;20049;-47
2022/01/12 09:43:54;;;;;;;6.97;5.00;;;25.80;29.80;;;;;;5013832;28;20029;-45
2022/01/12 09:46:23;;;;;;;7.55;5.72;;;25.80;29.80;;;;;;5004542;28;20026;-44
2022/01/12 09:48:49;;;;;;;9.15;5.20;;;25.80;29.70;;;;;;5010114;28;20026;-44
2022/01/12 09:51:15;;;;;;;7.03;5.78;;;25.80;29.90;;;;;;5010853;28;20033;-44
2022/01/12 09:53:41;;;;;;;7.93;5.65;;;25.80;29.70;;;;;;5009537;28;20042;-43
2022/01/12 09:56:28;;;;;;;7.22;5.47;;;25.80;29.80;;;;;;5004333;28;20038;-44
2022/01/12 09:58:56;;;;;;;6.10;4.60;;;25.80;29.70;;;;;;5002596;28;20084;-44
2022/01/12 10:01:36;;;;;;;6.05;4.50;;;25.80;29.90;;;;;;5010783;28;20088;-44
2022/01/12 10:04:29;;;;;;;7.03;5.45;;;25.80;29.70;;;;;;5016439;28;20041;-44
2022/01/12 10:07:00;;;;;;;6.78;5.07;;;25.80;29.80;;;;;;5016738;28;20073;-44
2022/01/12 10:09:36;;;;;;;6.95;5.22;;;25.80;29.70;;;;;;5013516;28;20043;-44
2022/01/12 10:12:05;;;;;;;6.20;4.97;;;25.80;29.70;;;;;;5021026;28;20014;-44
2022/01/12 10:14:54;;;;;;;6.45;5.13;;;25.80;29.80;;;;;;5021913;28;20033;-44
2022/01/12 10:17:36;;;;;;;6.15;4.95;;;25.80;29.70;;;;;;5026450;28;20355;-44
2022/01/12 10:20:06;;;;;;;6.85;4.85;;;25.80;29.70;;;;;;5026088;28;20021;-44
2022/01/12 10:22:32;;;;;;;6.30;4.75;;;25.80;29.80;;;;;;5024779;28;20693;-44
2022/01/12 10:25:01;;;;;;;6.05;5.05;;;25.80;29.70;;;;;;5025562;28;20075;-44
2022/01/12 10:27:28;;;;;;;6.47;4.82;;;25.80;29.90;;;;;;5011933;28;20052;-44
2022/01/12 10:30:01;;;;;;;6.10;5.00;;;25.80;29.90;;;;;;5006474;28;20149;-45
2022/01/12 10:32:27;;;;;;;6.00;4.43;;;25.80;29.80;;;;;;5006196;28;20033;-44
2022/01/12 10:34:53;;;;;;;6.57;5.10;;;25.80;29.80;;;;;;5006927;28;20028;-44
2022/01/12 10:37:22;;;;;;;6.78;4.68;;;25.80;29.90;;;;;;5006823;28;20025;-44
2022/01/12 10:39:50;;;;;;;6.68;5.35;;;25.80;29.60;;;;;;5024503;28;20028;-44
2022/01/12 10:42:23;;;;;;;5.80;4.75;;;25.80;30.00;;;;;;5023989;28;20028;-44
2022/01/12 10:44:55;;;;;;;6.20;4.57;;;25.80;30.00;;;;;;5025882;28;20816;-44
2022/01/12 10:47:29;;;;;;;5.90;4.90;;;25.80;30.10;;;;;;5026049;28;20028;-43
2022/01/12 10:49:55;;;;;;;7.13;5.10;;;25.80;30.30;;;;;;5026049;28;20053;-44
2022/01/12 10:52:51;;;;;;;10.43;4.72;;;25.80;30.10;;;;;;5024755;28;20372;-45
2022/01/12 10:55:17;;;;;;;5.75;4.70;;;25.80;30.10;;;;;;5003313;28;20427;-45
2022/01/12 10:57:44;;;;;;;5.78;4.78;;;25.80;30.00;;;;;;5005810;28;20106;-44
2022/01/12 11:00:19;;;;;;;5.82;4.80;;;25.80;29.90;;;;;;5011204;28;20048;-44
2022/01/12 11:02:48;;;;;;;6.78;5.65;;;25.80;29.50;;;;;;5026201;28;20448;-44
2022/01/12 11:05:14;;;;;;;5.80;4.97;;;25.80;29.30;;;;;;5015647;28;20037;-44
2022/01/12 11:07:40;;;;;;;6.25;4.75;;;25.80;29.50;;;;;;5006506;28;20022;-44
2022/01/12 11:10:08;;;;;;;6.18;4.82;;;25.80;29.60;;;;;;5025954;28;20203;-44
2022/01/12 11:12:35;;;;;;;6.38;5.38;;;25.80;29.50;;;;;;5025511;28;20021;-45
2022/01/12 11:15:11;;;;;;;6.18;5.35;;;25.80;29.50;;;;;;5026360;28;20040;-45
2022/01/12 11:17:39;;;;;;;7.05;5.57;;;25.80;29.60;;;;;;5013981;28;20033;-44
2022/01/12 11:20:21;;;;;;;6.18;5.10;;;25.80;29.70;;;;;;5023247;28;20108;-44
2022/01/12 11:23:11;;;;;;;6.28;4.88;;;25.70;29.60;;;;;;5023422;28;20022;-44
2022/01/12 11:25:37;;;;;;;7.35;6.05;;;25.80;30.30;;;;;;5024535;28;20025;-44
2022/01/12 11:28:19;;;;;;;5.97;4.80;;;25.80;29.50;;;;;;5006474;28;20025;-44
2022/01/12 11:30:51;;;;;;;7.13;5.68;;;25.70;29.50;;;;;;5005185;28;20026;-44
2022/01/12 11:33:19;;;;;;;6.25;5.40;;;25.70;29.50;;;;;;5005440;28;20521;-45
2022/01/12 11:35:47;;;;;;;6.38;5.32;;;25.70;29.50;;;;;;5005486;28;20099;-44
2022/01/12 11:38:34;;;;;;;6.47;5.45;;;25.70;29.40;;;;;;5004866;28;20037;-46
2022/01/12 11:41:15;;;;;;;6.65;5.63;;;25.70;29.50;;;;;;5005898;28;20026;-45
2022/01/12 11:43:53;;;;;;;5.53;4.80;;;25.70;29.50;;;;;;5005332;28;20108;-44
2022/01/12 11:46:24;;;;;;;5.88;4.80;;;25.70;29.50;;;;;;5005283;28;20037;-45
2022/01/12 11:48:56;;;;;;;6.93;5.75;;;25.60;29.30;;;;;;5005758;28;20678;-44
2022/01/12 11:51:42;;;;;;;7.38;5.45;;;25.60;29.50;;;;;;5005418;28;20658;-44
2022/01/12 11:54:10;;;;;;;6.20;5.22;;;25.60;29.60;;;;;;5004485;28;20038;-44
2022/01/12 11:56:38;;;;;;;5.45;4.53;;;25.60;29.70;;;;;;5003128;28;20070;-44
2022/01/12 11:59:12;;;;;;;6.43;5.00;;;25.60;29.50;;;;;;5005247;28;20522;-44
2022/01/12 12:01:44;;;;;;;6.07;4.93;;;25.60;29.50;;;;;;5005462;28;20068;-44
2022/01/12 12:04:24;;;;;;;6.93;5.43;;;25.60;29.50;;;;;;5004951;28;20129;-44
2022/01/12 12:07:14;;;;;;;6.35;5.22;;;25.60;29.50;;;;;;4987337;28;20129;-44
2022/01/12 12:09:44;;;;;;;7.38;5.50;;;25.60;29.40;;;;;;5010894;28;20104;-44
2022/01/12 12:12:16;;;;;;;6.93;5.30;;;25.60;29.60;;;;;;5004720;28;20077;-44
2022/01/12 12:14:50;;;;;;;6.22;5.25;;;25.50;29.60;;;;;;5005197;28;20511;-44
2022/01/12 12:17:17;;;;;;;7.20;6.40;;;25.50;29.50;;;;;;5004254;28;20033;-44
2022/01/12 12:19:47;;;;;;;6.13;5.28;;;25.50;29.50;;;;;;5005057;28;20029;-44
2022/01/12 12:22:18;;;;;;;7.05;5.97;;;25.50;29.50;;;;;;5002689;28;20137;-45
2022/01/12 12:24:46;;;;;;;6.00;5.15;;;25.50;30.20;;;;;;5003279;28;20045;-44
2022/01/12 12:27:18;;;;;;;7.57;5.70;;;25.50;29.50;;;;;;5004639;28;20025;-44
2022/01/12 12:29:45;;;;;;;6.70;5.45;;;25.50;29.50;;;;;;5004943;28;20029;-44
2022/01/12 12:32:13;;;;;;;5.75;4.85;;;25.50;29.50;;;;;;5004517;28;20032;-44
2022/01/12 12:34:40;;;;;;;7.25;6.03;;;25.40;29.50;;;;;;5004161;28;20097;-44
2022/01/12 12:37:08;;;;;;;7.03;5.57;;;25.50;29.60;;;;;;5004106;28;20068;-44
2022/01/12 12:39:38;;;;;;;7.47;5.93;;;25.50;29.70;;;;;;5021220;28;20060;-44
2022/01/12 12:42:13;;;;;;;6.53;5.65;;;25.50;29.70;;;;;;5023882;28;20026;-44
2022/01/12 12:44:39;;;;;;;6.10;5.15;;;25.50;29.80;;;;;;5024252;28;20030;-44
2022/01/12 12:47:13;;;;;;;6.07;4.65;;;25.40;29.90;;;;;;5023618;28;20060;-44
2022/01/12 12:49:50;;;;;;;6.57;5.30;;;25.50;29.90;;;;;;5023843;28;20654;-44
2022/01/12 12:52:26;;;;;;;5.88;4.90;;;25.50;29.90;;;;;;5022583;28;20049;-45
2022/01/12 12:54:53;;;;;;;6.88;5.43;;;25.50;29.90;;;;;;5021815;28;20809;-44
2022/01/12 12:57:22;;;;;;;7.13;6.40;;;25.50;29.80;;;;;;5015306;28;20037;-45
2022/01/12 13:00:03;;;;;;;5.85;4.90;;;25.50;29.80;;;;;;5004156;28;20068;-44
2022/01/12 13:02:38;;;;;;;6.88;5.93;;;25.50;29.80;;;;;;5003517;28;20037;-44
2022/01/12 13:05:10;;;;;;;6.57;5.18;;;25.50;29.70;;;;;;5003523;28;20104;-44
2022/01/12 13:07:38;;;;;;;6.50;5.00;;;25.50;29.80;;;;;;5003958;28;20473;-45
2022/01/12 13:10:15;;;;;;;5.93;4.95;;;25.50;29.70;;;;;;5021201;28;20025;-45
2022/01/12 13:12:44;;;;;;;6.82;5.55;;;25.50;29.70;;;;;;5023119;28;20033;-44
2022/01/12 13:15:15;;;;;;;7.38;5.63;;;25.50;29.70;;;;;;5023862;28;20108;-44
2022/01/12 13:17:41;;;;;;;5.70;4.68;;;25.50;29.60;;;;;;5023154;28;20018;-44
2022/01/12 13:22:49;;;;;;;6.70;5.43;;;25.50;29.70;;;;;;5022966;28;20014;-45
2022/01/12 13:25:16;;;;;;;6.43;5.07;;;25.50;29.50;;;;;;5005046;28;20131;-44
2022/01/12 13:27:45;;;;;;;6.40;5.05;;;25.50;29.50;;;;;;5007579;28;20037;-44
2022/01/12 13:30:31;;;;;;;6.07;5.07;;;25.50;29.50;;;;;;5014832;28;20033;-44
2022/01/12 13:32:58;;;;;;;6.13;5.13;;;25.50;29.50;;;;;;5022431;28;20486;-44
2022/01/12 13:35:35;;;;;;;6.28;5.40;;;25.50;29.50;;;;;;5004406;28;20528;-44
2022/01/12 13:38:05;;;;;;;6.13;5.00;;;25.50;29.40;;;;;;5004022;28;20040;-44
2022/01/12 13:40:39;;;;;;;6.22;4.80;;;25.50;29.40;;;;;;5004125;28;20069;-44
2022/01/12 13:43:05;;;;;;;5.95;5.05;;;25.50;29.40;;;;;;5003842;28;20033;-44
2022/01/12 13:45:40;;;;;;;5.72;5.07;;;25.50;29.40;;;;;;5007659;28;20389;-44
2022/01/12 13:48:16;;;;;;;7.15;5.55;;;25.50;29.40;;;;;;5021302;28;20160;-44
2022/01/12 13:50:53;;;;;;;7.07;5.85;;;25.50;29.20;;;;;;5026462;28;20022;-44
2022/01/12 13:53:30;;;;;;;7.30;5.55;;;25.50;29.30;;;;;;5024886;28;20029;-44
2022/01/12 13:55:56;;;;;;;6.45;5.28;;;25.50;29.20;;;;;;5007734;28;20643;-44
2022/01/12 13:58:27;;;;;;;6.38;5.20;;;25.50;29.30;;;;;;5007303;28;20176;-44
2022/01/12 14:01:10;;;;;;;7.30;5.95;;;25.50;29.20;;;;;;5007652;28;20112;-45
2022/01/12 14:03:46;;;;;;;7.07;5.68;;;25.50;29.30;;;;;;5007014;28;20117;-44
2022/01/12 14:06:24;;;;;;;7.03;5.53;;;25.50;29.20;;;;;;5007451;28;20032;-44
2022/01/12 14:08:56;;;;;;;6.15;5.00;;;25.50;29.10;;;;;;5011247;28;20065;-45
2022/01/12 14:11:30;;;;;;;6.90;5.25;;;25.50;29.10;;;;;;5026984;28;20033;-44
2022/01/12 14:13:59;;;;;;;6.50;5.32;;;25.50;29.20;;;;;;5026077;28;20088;-44
2022/01/12 14:16:30;;;;;;;6.15;5.25;;;25.50;29.00;;;;;;5026060;28;20030;-44